sensor_id;sensor_type;location;lat;lon;timestamp;temperature;humidity
14359;DHT22;7263;49.418;11.064;2023-05-29T00:02:10;14.40;99.40
14359;DHT22;7263;49.418;11.064;2023-05-29T00:04:36;14.30;99.60
14359;DHT22;7263;49.418;11.064;2023-05-29T00:07:09;14.20;99.90
14359;DHT22;7263;49.418;11.064;2023-05-29T00:09:38;14.20;99.90
14359;DHT22;7263;49.418;11.064;2023-05-29T00:12:11;14.00;99.90
14359;DHT22;7263;49.418;11.064;2023-05-29T00:14:48;10.30;99.70
14359;DHT22;7263;49.418;11.064;2023-05-29T00:17:17;13.80;99.90
14359;DHT22;7263;49.418;11.064;2023-05-29T00:19:47;13.70;99.90
14359;DHT22;7263;49.418;11.064;2023-05-29T00:22:16;13.60;99.90
14359;DHT22;7263;49.418;11.064;2023-05-29T00:24:46;13.40;99.90
14359;DHT22;7263;49.418;11.064;2023-05-29T00:27:14;13.40;99.90
14359;DHT22;7263;49.418;11.064;2023-05-29T00:29:50;13.30;99.90
14359;DHT22;7263;49.418;11.064;2023-05-29T00:32:17;13.20;99.90
14359;DHT22;7263;49.418;11.064;2023-05-29T00:34:48;13.10;99.90
14359;DHT22;7263;49.418;11.064;2023-05-29T00:37:15;13.10;99.90
14359;DHT22;7263;49.418;11.064;2023-05-29T00:39:42;12.90;99.90
14359;DHT22;7263;49.418;11.064;2023-05-29T00:42:09;12.90;99.90
14359;DHT22;7263;49.418;11.064;2023-05-29T00:44:40;12.70;99.90
14359;DHT22;7263;49.418;11.064;2023-05-29T00:47:13;12.70;99.90
14359;DHT22;7263;49.418;11.064;2023-05-29T00:49:40;12.70;99.90
14359;DHT22;7263;49.418;11.064;2023-05-29T00:52:07;12.60;99.90
14359;DHT22;7263;49.418;11.064;2023-05-29T00:54:46;12.50;99.90
14359;DHT22;7263;49.418;11.064;2023-05-29T00:57:16;12.50;99.90
14359;DHT22;7263;49.418;11.064;2023-05-29T00:59:47;12.40;99.90
14359;DHT22;7263;49.418;11.064;2023-05-29T01:02:14;12.30;99.90
14359;DHT22;7263;49.418;11.064;2023-05-29T01:04:42;12.20;99.90
14359;DHT22;7263;49.418;11.064;2023-05-29T01:07:13;12.20;99.90
14359;DHT22;7263;49.418;11.064;2023-05-29T01:09:41;12.10;99.90
14359;DHT22;7263;49.418;11.064;2023-05-29T01:12:16;12.10;99.90
14359;DHT22;7263;49.418;11.064;2023-05-29T01:15:04;12.00;99.90
14359;DHT22;7263;49.418;11.064;2023-05-29T01:17:51;11.90;99.90
14359;DHT22;7263;49.418;11.064;2023-05-29T01:20:35;11.90;99.90
14359;DHT22;7263;49.418;11.064;2023-05-29T01:23:18;11.90;99.90
14359;DHT22;7263;49.418;11.064;2023-05-29T01:26:07;11.70;99.90
14359;DHT22;7263;49.418;11.064;2023-05-29T01:28:44;11.60;99.90
14359;DHT22;7263;49.418;11.064;2023-05-29T01:31:19;11.60;99.90
14359;DHT22;7263;49.418;11.064;2023-05-29T01:33:52;11.60;99.90
14359;DHT22;7263;49.418;11.064;2023-05-29T01:36:19;11.50;99.90
14359;DHT22;7263;49.418;11.064;2023-05-29T01:38:46;11.50;99.90
14359;DHT22;7263;49.418;11.064;2023-05-29T01:41:17;11.50;99.90
14359;DHT22;7263;49.418;11.064;2023-05-29T01:43:51;11.40;99.90
14359;DHT22;7263;49.418;11.064;2023-05-29T01:46:21;11.40;99.90
14359;DHT22;7263;49.418;11.064;2023-05-29T01:48:51;11.30;99.90
14359;DHT22;7263;49.418;11.064;2023-05-29T01:51:21;11.30;99.90
14359;DHT22;7263;49.418;11.064;2023-05-29T01:53:48;11.20;99.90
14359;DHT22;7263;49.418;11.064;2023-05-29T01:56:15;11.10;99.90
14359;DHT22;7263;49.418;11.064;2023-05-29T01:58:53;11.10;99.90
14359;DHT22;7263;49.418;11.064;2023-05-29T02:01:20;11.10;99.90
14359;DHT22;7263;49.418;11.064;2023-05-29T02:03:47;11.10;99.90
14359;DHT22;7263;49.418;11.064;2023-05-29T02:06:14;11.00;99.90
14359;DHT22;7263;49.418;11.064;2023-05-29T02:08:41;11.00;99.90
14359;DHT22;7263;49.418;11.064;2023-05-29T02:11:08;10.90;99.90
14359;DHT22;7263;49.418;11.064;2023-05-29T02:13:38;10.90;99.90
14359;DHT22;7263;49.418;11.064;2023-05-29T02:16:06;10.80;99.90
14359;DHT22;7263;49.418;11.064;2023-05-29T02:18:33;10.80;99.90
14359;DHT22;7263;49.418;11.064;2023-05-29T02:21:09;10.70;99.90
14359;DHT22;7263;49.418;11.064;2023-05-29T02:23:36;10.70;99.90
14359;DHT22;7263;49.418;11.064;2023-05-29T02:26:09;10.70;99.90
14359;DHT22;7263;49.418;11.064;2023-05-29T02:28:36;10.60;99.90
14359;DHT22;7263;49.418;11.064;2023-05-29T02:31:02;10.60;99.90
14359;DHT22;7263;49.418;11.064;2023-05-29T02:33:36;10.50;99.90
14359;DHT22;7263;49.418;11.064;2023-05-29T02:36:09;10.50;99.90
14359;DHT22;7263;49.418;11.064;2023-05-29T02:38:40;10.50;99.90
14359;DHT22;7263;49.418;11.064;2023-05-29T02:41:10;10.50;99.90
14359;DHT22;7263;49.418;11.064;2023-05-29T02:43:39;10.40;99.90
14359;DHT22;7263;49.418;11.064;2023-05-29T02:46:08;10.40;99.90
14359;DHT22;7263;49.418;11.064;2023-05-29T02:48:39;10.50;99.90
14359;DHT22;7263;49.418;11.064;2023-05-29T02:51:12;10.40;99.90
14359;DHT22;7263;49.418;11.064;2023-05-29T02:53:43;10.30;99.90
14359;DHT22;7263;49.418;11.064;2023-05-29T02:56:21;10.30;99.90
14359;DHT22;7263;49.418;11.064;2023-05-29T02:58:54;10.30;99.90
14359;DHT22;7263;49.418;11.064;2023-05-29T03:01:27;10.30;99.90
14359;DHT22;7263;49.418;11.064;2023-05-29T03:04:04;10.30;99.90
14359;DHT22;7263;49.418;11.064;2023-05-29T03:06:31;10.30;99.90
14359;DHT22;7263;49.418;11.064;2023-05-29T03:08:58;10.40;99.90
14359;DHT22;7263;49.418;11.064;2023-05-29T03:11:25;10.50;99.90
14359;DHT22;7263;49.418;11.064;2023-05-29T03:14:02;10.60;99.90
14359;DHT22;7263;49.418;11.064;2023-05-29T03:16:34;10.70;99.90
14359;DHT22;7263;49.418;11.064;2023-05-29T03:19:02;10.70;99.90
14359;DHT22;7263;49.418;11.064;2023-05-29T03:21:32;10.60;99.90
14359;DHT22;7263;49.418;11.064;2023-05-29T03:24:04;10.60;99.90
14359;DHT22;7263;49.418;11.064;2023-05-29T03:26:37;10.80;99.90
14359;DHT22;7263;49.418;11.064;2023-05-29T03:29:06;10.90;99.90
14359;DHT22;7263;49.418;11.064;2023-05-29T03:31:35;11.10;99.90
14359;DHT22;7263;49.418;11.064;2023-05-29T03:34:04;11.20;99.90
14359;DHT22;7263;49.418;11.064;2023-05-29T03:36:30;11.20;99.90
14359;DHT22;7263;49.418;11.064;2023-05-29T03:39:01;11.20;99.90
14359;DHT22;7263;49.418;11.064;2023-05-29T03:41:34;11.20;99.90
14359;DHT22;7263;49.418;11.064;2023-05-29T03:44:01;11.20;99.90
14359;DHT22;7263;49.418;11.064;2023-05-29T03:46:36;11.10;99.90
14359;DHT22;7263;49.418;11.064;2023-05-29T03:49:07;11.10;99.90
14359;DHT22;7263;49.418;11.064;2023-05-29T03:51:36;11.40;99.90
14359;DHT22;7263;49.418;11.064;2023-05-29T03:54:03;11.20;99.90
14359;DHT22;7263;49.418;11.064;2023-05-29T03:56:30;11.20;99.90
14359;DHT22;7263;49.418;11.064;2023-05-29T03:59:03;11.30;99.90
14359;DHT22;7263;49.418;11.064;2023-05-29T04:01:32;11.40;99.90
14359;DHT22;7263;49.418;11.064;2023-05-29T04:04:12;11.60;99.90
14359;DHT22;7263;49.418;11.064;2023-05-29T04:06:39;11.80;99.90
14359;DHT22;7263;49.418;11.064;2023-05-29T04:09:06;12.00;99.90
14359;DHT22;7263;49.418;11.064;2023-05-29T04:11:48;12.20;99.90
14359;DHT22;7263;49.418;11.064;2023-05-29T04:14:24;12.70;99.90
14359;DHT22;7263;49.418;11.064;2023-05-29T04:16:51;12.70;99.90
14359;DHT22;7263;49.418;11.064;2023-05-29T04:19:22;12.90;99.90
14359;DHT22;7263;49.418;11.064;2023-05-29T04:21:56;13.20;99.90
14359;DHT22;7263;49.418;11.064;2023-05-29T04:24:23;13.70;99.90
14359;DHT22;7263;49.418;11.064;2023-05-29T04:26:50;13.80;99.90
14359;DHT22;7263;49.418;11.064;2023-05-29T04:29:19;12.80;99.90
14359;DHT22;7263;49.418;11.064;2023-05-29T04:31:46;14.20;99.90
14359;DHT22;7263;49.418;11.064;2023-05-29T04:34:13;14.40;99.90
14359;DHT22;7263;49.418;11.064;2023-05-29T04:36:44;14.60;99.90
14359;DHT22;7263;49.418;11.064;2023-05-29T04:39:13;14.90;99.90
14359;DHT22;7263;49.418;11.064;2023-05-29T04:41:46;15.10;99.90
14359;DHT22;7263;49.418;11.064;2023-05-29T04:44:13;15.30;99.90
14359;DHT22;7263;49.418;11.064;2023-05-29T04:46:40;15.60;99.90
14359;DHT22;7263;49.418;11.064;2023-05-29T04:49:15;15.70;99.90
14359;DHT22;7263;49.418;11.064;2023-05-29T04:51:52;15.80;99.90
14359;DHT22;7263;49.418;11.064;2023-05-29T04:54:19;16.00;99.90
14359;DHT22;7263;49.418;11.064;2023-05-29T04:56:57;16.00;99.90
14359;DHT22;7263;49.418;11.064;2023-05-29T04:59:24;16.20;99.90
14359;DHT22;7263;49.418;11.064;2023-05-29T05:01:53;16.30;99.90
14359;DHT22;7263;49.418;11.064;2023-05-29T05:04:20;16.50;99.90
14359;DHT22;7263;49.418;11.064;2023-05-29T05:06:55;16.50;99.90
14359;DHT22;7263;49.418;11.064;2023-05-29T05:09:25;16.70;99.90
14359;DHT22;7263;49.418;11.064;2023-05-29T05:11:54;16.80;99.90
14359;DHT22;7263;49.418;11.064;2023-05-29T05:14:24;17.10;99.90
14359;DHT22;7263;49.418;11.064;2023-05-29T05:16:50;17.10;99.90
14359;DHT22;7263;49.418;11.064;2023-05-29T05:19:17;17.20;99.90
14359;DHT22;7263;49.418;11.064;2023-05-29T05:21:56;17.30;99.90
14359;DHT22;7263;49.418;11.064;2023-05-29T05:24:23;17.40;99.90
14359;DHT22;7263;49.418;11.064;2023-05-29T05:26:52;17.50;99.90
14359;DHT22;7263;49.418;11.064;2023-05-29T05:29:22;17.50;99.90
14359;DHT22;7263;49.418;11.064;2023-05-29T05:31:48;17.40;99.90
14359;DHT22;7263;49.418;11.064;2023-05-29T05:34:17;17.40;99.90
14359;DHT22;7263;49.418;11.064;2023-05-29T05:36:46;17.40;99.90
14359;DHT22;7263;49.418;11.064;2023-05-29T05:39:18;17.50;99.90
14359;DHT22;7263;49.418;11.064;2023-05-29T05:41:45;17.60;99.90
14359;DHT22;7263;49.418;11.064;2023-05-29T05:44:12;17.80;99.90
14359;DHT22;7263;49.418;11.064;2023-05-29T05:46:41;18.10;99.90
14359;DHT22;7263;49.418;11.064;2023-05-29T05:49:07;18.30;99.90
14359;DHT22;7263;49.418;11.064;2023-05-29T05:51:36;18.50;99.90
14359;DHT22;7263;49.418;11.064;2023-05-29T05:54:03;18.60;99.90
14359;DHT22;7263;49.418;11.064;2023-05-29T05:56:37;18.60;99.90
14359;DHT22;7263;49.418;11.064;2023-05-29T05:59:11;18.60;99.80
14359;DHT22;7263;49.418;11.064;2023-05-29T06:01:38;18.60;99.20
14359;DHT22;7263;49.418;11.064;2023-05-29T06:04:15;18.60;99.30
14359;DHT22;7263;49.418;11.064;2023-05-29T06:06:45;18.80;99.00
14359;DHT22;7263;49.418;11.064;2023-05-29T06:09:14;19.00;99.60
14359;DHT22;7263;49.418;11.064;2023-05-29T06:11:45;19.20;98.10
14359;DHT22;7263;49.418;11.064;2023-05-29T06:14:16;19.30;97.80
14359;DHT22;7263;49.418;11.064;2023-05-29T06:16:45;19.40;97.80
14359;DHT22;7263;49.418;11.064;2023-05-29T06:19:22;19.50;98.20
14359;DHT22;7263;49.418;11.064;2023-05-29T06:21:51;19.80;97.60
14359;DHT22;7263;49.418;11.064;2023-05-29T06:24:20;20.10;96.20
14359;DHT22;7263;49.418;11.064;2023-05-29T06:26:50;20.10;96.40
14359;DHT22;7263;49.418;11.064;2023-05-29T06:29:17;20.20;96.20
14359;DHT22;7263;49.418;11.064;2023-05-29T06:31:43;20.30;95.00
14359;DHT22;7263;49.418;11.064;2023-05-29T06:34:10;20.30;95.60
14359;DHT22;7263;49.418;11.064;2023-05-29T06:36:40;20.30;95.20
14359;DHT22;7263;49.418;11.064;2023-05-29T06:39:10;20.40;95.60
14359;DHT22;7263;49.418;11.064;2023-05-29T06:41:40;20.60;95.00
14359;DHT22;7263;49.418;11.064;2023-05-29T06:44:13;20.80;95.40
14359;DHT22;7263;49.418;11.064;2023-05-29T06:46:42;21.00;94.10
14359;DHT22;7263;49.418;11.064;2023-05-29T06:49:08;21.40;94.00
14359;DHT22;7263;49.418;11.064;2023-05-29T06:51:35;21.40;93.40
14359;DHT22;7263;49.418;11.064;2023-05-29T06:54:05;21.60;93.40
14359;DHT22;7263;49.418;11.064;2023-05-29T06:56:32;21.70;93.60
14359;DHT22;7263;49.418;11.064;2023-05-29T06:59:03;21.90;93.20
14359;DHT22;7263;49.418;11.064;2023-05-29T07:01:31;22.00;92.60
14359;DHT22;7263;49.418;11.064;2023-05-29T07:04:00;22.10;92.70
14359;DHT22;7263;49.418;11.064;2023-05-29T07:06:27;22.20;92.70
14359;DHT22;7263;49.418;11.064;2023-05-29T07:08:54;22.60;92.20
14359;DHT22;7263;49.418;11.064;2023-05-29T07:11:25;22.50;91.90
14359;DHT22;7263;49.418;11.064;2023-05-29T07:13:54;22.30;91.80
14359;DHT22;7263;49.418;11.064;2023-05-29T07:16:24;22.10;91.10
14359;DHT22;7263;49.418;11.064;2023-05-29T07:18:58;22.10;92.20
14359;DHT22;7263;49.418;11.064;2023-05-29T07:21:28;22.20;91.50
14359;DHT22;7263;49.418;11.064;2023-05-29T07:24:00;22.40;92.30
14359;DHT22;7263;49.418;11.064;2023-05-29T07:26:31;22.70;91.20
14359;DHT22;7263;49.418;11.064;2023-05-29T07:29:01;22.90;91.20
14359;DHT22;7263;49.418;11.064;2023-05-29T07:31:28;23.00;91.20
14359;DHT22;7263;49.418;11.064;2023-05-29T07:33:58;23.20;91.10
14359;DHT22;7263;49.418;11.064;2023-05-29T07:36:29;23.30;90.00
14359;DHT22;7263;49.418;11.064;2023-05-29T07:39:05;23.20;90.20
14359;DHT22;7263;49.418;11.064;2023-05-29T07:41:33;23.00;88.90
14359;DHT22;7263;49.418;11.064;2023-05-29T07:44:03;23.10;90.10
14359;DHT22;7263;49.418;11.064;2023-05-29T07:46:29;23.20;89.50
14359;DHT22;7263;49.418;11.064;2023-05-29T07:48:57;22.90;89.90
14359;DHT22;7263;49.418;11.064;2023-05-29T07:51:24;23.00;90.00
14359;DHT22;7263;49.418;11.064;2023-05-29T07:54:02;23.30;90.30
14359;DHT22;7263;49.418;11.064;2023-05-29T07:56:28;23.80;88.40
14359;DHT22;7263;49.418;11.064;2023-05-29T07:58:56;23.90;87.80
14359;DHT22;7263;49.418;11.064;2023-05-29T08:01:27;24.30;87.80
14359;DHT22;7263;49.418;11.064;2023-05-29T08:03:59;24.70;87.40
14359;DHT22;7263;49.418;11.064;2023-05-29T08:06:26;24.60;84.50
14359;DHT22;7263;49.418;11.064;2023-05-29T08:08:53;24.60;85.10
14359;DHT22;7263;49.418;11.064;2023-05-29T08:11:22;24.60;82.60
14359;DHT22;7263;49.418;11.064;2023-05-29T08:13:52;24.60;83.30
14359;DHT22;7263;49.418;11.064;2023-05-29T08:16:29;24.70;83.00
14359;DHT22;7263;49.418;11.064;2023-05-29T08:19:03;24.80;81.10
14359;DHT22;7263;49.418;11.064;2023-05-29T08:21:30;24.70;81.40
14359;DHT22;7263;49.418;11.064;2023-05-29T08:23:58;21.10;77.70
14359;DHT22;7263;49.418;11.064;2023-05-29T08:26:27;24.50;79.90
14359;DHT22;7263;49.418;11.064;2023-05-29T08:28:57;24.10;79.70
14359;DHT22;7263;49.418;11.064;2023-05-29T08:31:24;24.10;80.30
14359;DHT22;7263;49.418;11.064;2023-05-29T08:33:55;24.10;80.80
14359;DHT22;7263;49.418;11.064;2023-05-29T08:36:26;24.00;79.80
14359;DHT22;7263;49.418;11.064;2023-05-29T08:38:55;23.90;81.00
14359;DHT22;7263;49.418;11.064;2023-05-29T08:41:26;24.20;80.80
14359;DHT22;7263;49.418;11.064;2023-05-29T08:43:55;24.20;79.60
14359;DHT22;7263;49.418;11.064;2023-05-29T08:46:23;23.90;78.00
14359;DHT22;7263;49.418;11.064;2023-05-29T08:48:52;23.80;78.50
14359;DHT22;7263;49.418;11.064;2023-05-29T08:51:22;23.90;78.80
14359;DHT22;7263;49.418;11.064;2023-05-29T08:54:01;24.20;77.40
14359;DHT22;7263;49.418;11.064;2023-05-29T08:56:28;24.20;74.30
14359;DHT22;7263;49.418;11.064;2023-05-29T08:58:57;24.00;75.80
14359;DHT22;7263;49.418;11.064;2023-05-29T09:01:30;23.90;76.60
14359;DHT22;7263;49.418;11.064;2023-05-29T09:03:57;24.10;77.40
14359;DHT22;7263;49.418;11.064;2023-05-29T09:06:30;24.30;76.40
14359;DHT22;7263;49.418;11.064;2023-05-29T09:08:59;24.30;76.50
14359;DHT22;7263;49.418;11.064;2023-05-29T09:11:26;23.90;76.30
14359;DHT22;7263;49.418;11.064;2023-05-29T09:13:56;23.90;76.70
14359;DHT22;7263;49.418;11.064;2023-05-29T09:16:23;24.10;76.40
14359;DHT22;7263;49.418;11.064;2023-05-29T09:18:50;24.40;77.00
14359;DHT22;7263;49.418;11.064;2023-05-29T09:21:28;24.70;77.70
14359;DHT22;7263;49.418;11.064;2023-05-29T09:24:04;25.10;77.80
14359;DHT22;7263;49.418;11.064;2023-05-29T09:26:31;25.40;77.00
14359;DHT22;7263;49.418;11.064;2023-05-29T09:29:11;25.20;75.50
14359;DHT22;7263;49.418;11.064;2023-05-29T09:31:46;25.00;76.40
14359;DHT22;7263;49.418;11.064;2023-05-29T09:34:18;25.20;74.70
14359;DHT22;7263;49.418;11.064;2023-05-29T09:36:48;25.30;73.70
14359;DHT22;7263;49.418;11.064;2023-05-29T09:39:18;25.40;74.70
14359;DHT22;7263;49.418;11.064;2023-05-29T09:41:45;23.00;71.80
14359;DHT22;7263;49.418;11.064;2023-05-29T09:44:16;25.70;73.40
14359;DHT22;7263;49.418;11.064;2023-05-29T09:46:43;25.60;72.80
14359;DHT22;7263;49.418;11.064;2023-05-29T09:49:12;25.40;73.60
14359;DHT22;7263;49.418;11.064;2023-05-29T09:51:39;25.30;74.00
14359;DHT22;7263;49.418;11.064;2023-05-29T09:56:46;25.80;74.00
14359;DHT22;7263;49.418;11.064;2023-05-29T09:59:14;25.90;72.70
14359;DHT22;7263;49.418;11.064;2023-05-29T10:01:43;26.00;73.40
14359;DHT22;7263;49.418;11.064;2023-05-29T10:04:16;26.20;71.50
14359;DHT22;7263;49.418;11.064;2023-05-29T10:06:47;26.20;70.80
14359;DHT22;7263;49.418;11.064;2023-05-29T10:09:18;26.20;69.10
14359;DHT22;7263;49.418;11.064;2023-05-29T10:11:57;26.20;70.00
14359;DHT22;7263;49.418;11.064;2023-05-29T10:14:31;26.30;69.20
14359;DHT22;7263;49.418;11.064;2023-05-29T10:17:02;26.40;70.70
14359;DHT22;7263;49.418;11.064;2023-05-29T10:19:32;26.40;69.60
14359;DHT22;7263;49.418;11.064;2023-05-29T10:22:08;26.40;69.70
14359;DHT22;7263;49.418;11.064;2023-05-29T10:24:48;27.00;70.10
14359;DHT22;7263;49.418;11.064;2023-05-29T10:27:22;27.10;69.60
14359;DHT22;7263;49.418;11.064;2023-05-29T10:29:56;27.30;69.10
14359;DHT22;7263;49.418;11.064;2023-05-29T10:32:33;26.90;68.80
14359;DHT22;7263;49.418;11.064;2023-05-29T10:35:10;26.60;68.90
14359;DHT22;7263;49.418;11.064;2023-05-29T10:37:44;26.70;68.40
14359;DHT22;7263;49.418;11.064;2023-05-29T10:40:13;26.70;68.00
14359;DHT22;7263;49.418;11.064;2023-05-29T10:42:45;26.70;67.80
14359;DHT22;7263;49.418;11.064;2023-05-29T10:48:37;26.90;66.00
14359;DHT22;7263;49.418;11.064;2023-05-29T10:51:26;26.60;66.40
14359;DHT22;7263;49.418;11.064;2023-05-29T10:54:07;26.50;66.00
14359;DHT22;7263;49.418;11.064;2023-05-29T10:56:37;26.60;64.70
14359;DHT22;7263;49.418;11.064;2023-05-29T10:59:12;26.70;62.90
14359;DHT22;7263;49.418;11.064;2023-05-29T11:01:42;26.50;61.60
14359;DHT22;7263;49.418;11.064;2023-05-29T11:04:33;26.40;62.80
14359;DHT22;7263;49.418;11.064;2023-05-29T11:09:53;26.50;63.00
14359;DHT22;7263;49.418;11.064;2023-05-29T11:12:22;26.60;62.60
14359;DHT22;7263;49.418;11.064;2023-05-29T11:15:04;26.70;60.30
14359;DHT22;7263;49.418;11.064;2023-05-29T11:17:43;26.70;61.10
14359;DHT22;7263;49.418;11.064;2023-05-29T11:23:19;26.80;62.30
14359;DHT22;7263;49.418;11.064;2023-05-29T11:25:46;26.70;60.70
14359;DHT22;7263;49.418;11.064;2023-05-29T11:28:13;26.60;62.50
14359;DHT22;7263;49.418;11.064;2023-05-29T11:30:46;26.60;61.60
14359;DHT22;7263;49.418;11.064;2023-05-29T11:33:23;26.40;61.50
14359;DHT22;7263;49.418;11.064;2023-05-29T11:35:59;26.40;61.60
14359;DHT22;7263;49.418;11.064;2023-05-29T11:38:29;26.50;63.00
14359;DHT22;7263;49.418;11.064;2023-05-29T11:40:57;26.60;62.20
14359;DHT22;7263;49.418;11.064;2023-05-29T11:45:59;26.70;61.20
14359;DHT22;7263;49.418;11.064;2023-05-29T11:48:26;26.60;61.20
14359;DHT22;7263;49.418;11.064;2023-05-29T11:50:56;26.30;61.90
14359;DHT22;7263;49.418;11.064;2023-05-29T11:53:26;26.30;61.60
14359;DHT22;7263;49.418;11.064;2023-05-29T11:56:07;26.20;62.10
14359;DHT22;7263;49.418;11.064;2023-05-29T11:58:36;26.40;61.30
14359;DHT22;7263;49.418;11.064;2023-05-29T12:01:35;26.40;61.20
14359;DHT22;7263;49.418;11.064;2023-05-29T12:04:13;26.40;62.10
14359;DHT22;7263;49.418;11.064;2023-05-29T12:06:46;26.30;61.10
14359;DHT22;7263;49.418;11.064;2023-05-29T12:09:33;26.30;62.20
14359;DHT22;7263;49.418;11.064;2023-05-29T12:12:02;26.50;63.00
14359;DHT22;7263;49.418;11.064;2023-05-29T12:14:29;26.70;61.00
14359;DHT22;7263;49.418;11.064;2023-05-29T12:16:58;26.70;61.90
14359;DHT22;7263;49.418;11.064;2023-05-29T12:19:30;26.90;62.40
14359;DHT22;7263;49.418;11.064;2023-05-29T12:21:59;26.90;61.50
14359;DHT22;7263;49.418;11.064;2023-05-29T12:24:31;26.30;61.20
14359;DHT22;7263;49.418;11.064;2023-05-29T12:27:07;26.30;61.30
14359;DHT22;7263;49.418;11.064;2023-05-29T12:29:41;26.00;63.00
14359;DHT22;7263;49.418;11.064;2023-05-29T12:32:12;26.00;61.80
14359;DHT22;7263;49.418;11.064;2023-05-29T12:34:55;26.00;61.50
14359;DHT22;7263;49.418;11.064;2023-05-29T12:37:24;26.00;62.60
14359;DHT22;7263;49.418;11.064;2023-05-29T12:40:14;26.10;62.70
14359;DHT22;7263;49.418;11.064;2023-05-29T12:42:41;25.90;62.40
14359;DHT22;7263;49.418;11.064;2023-05-29T12:45:11;25.70;64.00
14359;DHT22;7263;49.418;11.064;2023-05-29T12:47:53;25.70;62.90
14359;DHT22;7263;49.418;11.064;2023-05-29T12:50:24;25.50;63.90
14359;DHT22;7263;49.418;11.064;2023-05-29T12:52:59;25.60;64.10
14359;DHT22;7263;49.418;11.064;2023-05-29T12:55:33;25.40;63.60
14359;DHT22;7263;49.418;11.064;2023-05-29T12:58:12;25.40;63.50
14359;DHT22;7263;49.418;11.064;2023-05-29T13:00:43;25.30;63.30
14359;DHT22;7263;49.418;11.064;2023-05-29T13:03:14;25.30;64.20
14359;DHT22;7263;49.418;11.064;2023-05-29T13:05:41;25.30;64.70
14359;DHT22;7263;49.418;11.064;2023-05-29T13:08:11;25.30;63.70
14359;DHT22;7263;49.418;11.064;2023-05-29T13:10:40;25.10;63.60
14359;DHT22;7263;49.418;11.064;2023-05-29T13:13:10;25.00;63.40
14359;DHT22;7263;49.418;11.064;2023-05-29T13:15:45;24.80;63.60
14359;DHT22;7263;49.418;11.064;2023-05-29T13:18:13;24.80;64.00
14359;DHT22;7263;49.418;11.064;2023-05-29T13:20:50;24.70;65.50
14359;DHT22;7263;49.418;11.064;2023-05-29T13:23:26;24.70;64.20
14359;DHT22;7263;49.418;11.064;2023-05-29T13:25:56;24.60;63.10
14359;DHT22;7263;49.418;11.064;2023-05-29T13:28:32;24.60;63.90
14359;DHT22;7263;49.418;11.064;2023-05-29T13:31:02;24.50;63.00
14359;DHT22;7263;49.418;11.064;2023-05-29T13:33:46;24.50;64.30
14359;DHT22;7263;49.418;11.064;2023-05-29T13:36:16;24.50;63.50
14359;DHT22;7263;49.418;11.064;2023-05-29T13:38:49;24.50;65.00
14359;DHT22;7263;49.418;11.064;2023-05-29T13:41:26;24.60;65.00
14359;DHT22;7263;49.418;11.064;2023-05-29T13:43:57;24.50;64.30
14359;DHT22;7263;49.418;11.064;2023-05-29T13:46:25;24.60;63.50
14359;DHT22;7263;49.418;11.064;2023-05-29T13:49:02;24.60;62.60
14359;DHT22;7263;49.418;11.064;2023-05-29T13:51:29;24.50;63.60
14359;DHT22;7263;49.418;11.064;2023-05-29T13:53:59;24.50;64.20
14359;DHT22;7263;49.418;11.064;2023-05-29T13:56:25;24.60;64.70
14359;DHT22;7263;49.418;11.064;2023-05-29T13:58:53;24.60;64.80
14359;DHT22;7263;49.418;11.064;2023-05-29T14:01:20;24.50;65.20
14359;DHT22;7263;49.418;11.064;2023-05-29T14:03:47;24.60;65.00
14359;DHT22;7263;49.418;11.064;2023-05-29T14:06:15;24.70;65.10
14359;DHT22;7263;49.418;11.064;2023-05-29T14:08:42;24.60;64.60
14359;DHT22;7263;49.418;11.064;2023-05-29T14:11:09;24.60;66.30
14359;DHT22;7263;49.418;11.064;2023-05-29T14:13:41;24.60;64.00
14359;DHT22;7263;49.418;11.064;2023-05-29T14:16:10;24.60;63.50
14359;DHT22;7263;49.418;11.064;2023-05-29T14:18:39;24.60;64.30
14359;DHT22;7263;49.418;11.064;2023-05-29T14:21:10;24.60;63.70
14359;DHT22;7263;49.418;11.064;2023-05-29T14:23:38;24.60;64.90
14359;DHT22;7263;49.418;11.064;2023-05-29T14:26:05;24.60;63.90
14359;DHT22;7263;49.418;11.064;2023-05-29T14:28:35;24.60;65.30
14359;DHT22;7263;49.418;11.064;2023-05-29T14:31:06;24.60;64.90
14359;DHT22;7263;49.418;11.064;2023-05-29T14:33:36;24.60;64.30
14359;DHT22;7263;49.418;11.064;2023-05-29T14:36:05;24.60;62.90
14359;DHT22;7263;49.418;11.064;2023-05-29T14:38:32;24.70;63.80
14359;DHT22;7263;49.418;11.064;2023-05-29T14:41:12;24.80;64.60
14359;DHT22;7263;49.418;11.064;2023-05-29T14:43:41;24.90;63.90
14359;DHT22;7263;49.418;11.064;2023-05-29T14:46:08;24.90;64.00
14359;DHT22;7263;49.418;11.064;2023-05-29T14:48:38;24.90;64.20
14359;DHT22;7263;49.418;11.064;2023-05-29T14:51:06;24.90;64.40
14359;DHT22;7263;49.418;11.064;2023-05-29T14:53:33;24.90;63.50
14359;DHT22;7263;49.418;11.064;2023-05-29T14:56:03;24.90;64.20
14359;DHT22;7263;49.418;11.064;2023-05-29T14:58:31;25.00;64.30
14359;DHT22;7263;49.418;11.064;2023-05-29T15:01:00;25.00;65.60
14359;DHT22;7263;49.418;11.064;2023-05-29T15:03:27;25.00;65.20
14359;DHT22;7263;49.418;11.064;2023-05-29T15:05:56;25.00;63.20
14359;DHT22;7263;49.418;11.064;2023-05-29T15:08:23;25.10;64.40
14359;DHT22;7263;49.418;11.064;2023-05-29T15:10:50;25.10;63.60
14359;DHT22;7263;49.418;11.064;2023-05-29T15:13:17;25.00;64.20
14359;DHT22;7263;49.418;11.064;2023-05-29T15:15:45;25.10;64.00
14359;DHT22;7263;49.418;11.064;2023-05-29T15:18:14;25.10;65.50
14359;DHT22;7263;49.418;11.064;2023-05-29T15:20:41;25.20;65.30
14359;DHT22;7263;49.418;11.064;2023-05-29T15:23:13;25.20;64.40
14359;DHT22;7263;49.418;11.064;2023-05-29T15:25:44;25.40;62.70
14359;DHT22;7263;49.418;11.064;2023-05-29T15:28:11;25.50;62.80
14359;DHT22;7263;49.418;11.064;2023-05-29T15:30:38;24.60;63.30
14359;DHT22;7263;49.418;11.064;2023-05-29T15:33:09;25.60;64.10
14359;DHT22;7263;49.418;11.064;2023-05-29T15:35:36;25.30;63.80
14359;DHT22;7263;49.418;11.064;2023-05-29T15:38:04;25.20;64.50
14359;DHT22;7263;49.418;11.064;2023-05-29T15:40:33;25.00;63.50
14359;DHT22;7263;49.418;11.064;2023-05-29T15:43:00;24.90;64.50
14359;DHT22;7263;49.418;11.064;2023-05-29T15:45:26;24.70;64.20
14359;DHT22;7263;49.418;11.064;2023-05-29T15:47:59;24.70;65.60
14359;DHT22;7263;49.418;11.064;2023-05-29T15:50:47;24.70;66.00
14359;DHT22;7263;49.418;11.064;2023-05-29T15:53:14;24.70;68.50
14359;DHT22;7263;49.418;11.064;2023-05-29T15:55:43;24.70;63.80
14359;DHT22;7263;49.418;11.064;2023-05-29T15:58:12;24.70;64.90
14359;DHT22;7263;49.418;11.064;2023-05-29T16:00:40;24.60;65.00
14359;DHT22;7263;49.418;11.064;2023-05-29T16:03:11;24.60;64.90
14359;DHT22;7263;49.418;11.064;2023-05-29T16:05:42;24.60;64.70
14359;DHT22;7263;49.418;11.064;2023-05-29T16:08:09;24.60;65.20